sensor_id;sensor_type;location;lat;lon;timestamp;P1;durP1;ratioP1;P2;durP2;ratioP2
8317;SDS011;4196;48.926;8.964;2023-05-10T00:00:49;1.57;;;0.30;;
8317;SDS011;4196;48.926;8.964;2023-05-10T00:03:36;0.10;;;0.10;;
8317;SDS011;4196;48.926;8.964;2023-05-10T00:06:23;0.63;;;0.40;;
8317;SDS011;4196;48.926;8.964;2023-05-10T00:09:09;0.37;;;0.37;;
8317;SDS011;4196;48.926;8.964;2023-05-10T00:11:56;1.40;;;0.57;;
8317;SDS011;4196;48.926;8.964;2023-05-10T00:14:44;0.37;;;0.37;;
8317;SDS011;4196;48.926;8.964;2023-05-10T00:17:31;1.17;;;0.33;;
8317;SDS011;4196;48.926;8.964;2023-05-10T00:20:17;0.43;;;0.40;;
8317;SDS011;4196;48.926;8.964;2023-05-10T00:23:04;0.40;;;0.40;;
8317;SDS011;4196;48.926;8.964;2023-05-10T00:25:50;0.87;;;0.80;;
8317;SDS011;4196;48.926;8.964;2023-05-10T00:28:37;0.43;;;0.43;;
8317;SDS011;4196;48.926;8.964;2023-05-10T00:31:24;0.83;;;0.60;;
8317;SDS011;4196;48.926;8.964;2023-05-10T00:34:10;0.60;;;0.53;;
8317;SDS011;4196;48.926;8.964;2023-05-10T00:36:56;1.00;;;0.90;;
8317;SDS011;4196;48.926;8.964;2023-05-10T00:39:43;0.83;;;0.70;;
8317;SDS011;4196;48.926;8.964;2023-05-10T00:42:30;1.23;;;0.70;;
8317;SDS011;4196;48.926;8.964;2023-05-10T00:45:17;0.70;;;0.70;;
8317;SDS011;4196;48.926;8.964;2023-05-10T00:48:03;0.80;;;0.80;;
8317;SDS011;4196;48.926;8.964;2023-05-10T00:50:50;0.70;;;0.70;;
8317;SDS011;4196;48.926;8.964;2023-05-10T00:53:37;0.60;;;0.60;;
8317;SDS011;4196;48.926;8.964;2023-05-10T00:56:23;1.10;;;1.00;;
8317;SDS011;4196;48.926;8.964;2023-05-10T00:59:11;0.60;;;0.60;;
8317;SDS011;4196;48.926;8.964;2023-05-10T01:01:57;0.80;;;0.80;;
8317;SDS011;4196;48.926;8.964;2023-05-10T01:04:44;0.67;;;0.67;;
8317;SDS011;4196;48.926;8.964;2023-05-10T01:07:30;1.17;;;1.07;;
8317;SDS011;4196;48.926;8.964;2023-05-10T01:10:17;0.80;;;0.80;;
8317;SDS011;4196;48.926;8.964;2023-05-10T01:13:04;1.33;;;1.00;;
8317;SDS011;4196;48.926;8.964;2023-05-10T01:15:50;1.13;;;1.00;;
8317;SDS011;4196;48.926;8.964;2023-05-10T01:18:40;1.50;;;1.07;;
8317;SDS011;4196;48.926;8.964;2023-05-10T01:21:43;2.13;;;1.00;;
8317;SDS011;4196;48.926;8.964;2023-05-10T01:31:08;1.20;;;1.10;;
8317;SDS011;4196;48.926;8.964;2023-05-10T01:34:09;1.07;;;1.07;;
8317;SDS011;4196;48.926;8.964;2023-05-10T01:37:10;1.00;;;1.00;;
8317;SDS011;4196;48.926;8.964;2023-05-10T01:40:08;4.00;;;1.00;;
8317;SDS011;4196;48.926;8.964;2023-05-10T01:43:02;2.53;;;1.00;;
8317;SDS011;4196;48.926;8.964;2023-05-10T01:49:00;2.63;;;1.00;;
8317;SDS011;4196;48.926;8.964;2023-05-10T01:51:50;1.20;;;1.10;;
8317;SDS011;4196;48.926;8.964;2023-05-10T01:54:44;0.97;;;0.97;;
8317;SDS011;4196;48.926;8.964;2023-05-10T01:57:36;1.87;;;1.40;;
8317;SDS011;4196;48.926;8.964;2023-05-10T02:00:25;1.07;;;1.00;;
8317;SDS011;4196;48.926;8.964;2023-05-10T02:03:13;0.90;;;0.90;;
8317;SDS011;4196;48.926;8.964;2023-05-10T02:06:02;1.20;;;1.10;;
8317;SDS011;4196;48.926;8.964;2023-05-10T02:08:49;2.77;;;1.20;;
8317;SDS011;4196;48.926;8.964;2023-05-10T02:11:37;1.47;;;1.07;;
8317;SDS011;4196;48.926;8.964;2023-05-10T02:14:25;1.83;;;1.40;;
8317;SDS011;4196;48.926;8.964;2023-05-10T02:17:12;1.60;;;1.50;;
8317;SDS011;4196;48.926;8.964;2023-05-10T02:20:00;2.33;;;1.20;;
8317;SDS011;4196;48.926;8.964;2023-05-10T02:22:48;2.50;;;2.23;;
8317;SDS011;4196;48.926;8.964;2023-05-10T02:25:36;1.63;;;1.33;;
8317;SDS011;4196;48.926;8.964;2023-05-10T02:28:24;3.90;;;1.57;;
8317;SDS011;4196;48.926;8.964;2023-05-10T02:31:13;2.13;;;1.87;;
8317;SDS011;4196;48.926;8.964;2023-05-10T02:34:01;2.80;;;2.27;;
8317;SDS011;4196;48.926;8.964;2023-05-10T02:36:49;1.67;;;1.57;;
8317;SDS011;4196;48.926;8.964;2023-05-10T02:39:38;2.87;;;1.60;;
8317;SDS011;4196;48.926;8.964;2023-05-10T02:42:31;1.90;;;1.53;;
8317;SDS011;4196;48.926;8.964;2023-05-10T02:45:23;1.87;;;1.53;;
8317;SDS011;4196;48.926;8.964;2023-05-10T02:48:14;1.70;;;1.60;;
8317;SDS011;4196;48.926;8.964;2023-05-10T02:51:03;2.50;;;2.07;;
8317;SDS011;4196;48.926;8.964;2023-05-10T02:53:52;1.80;;;1.70;;
8317;SDS011;4196;48.926;8.964;2023-05-10T02:56:40;3.00;;;1.77;;
8317;SDS011;4196;48.926;8.964;2023-05-10T02:59:33;2.73;;;1.70;;
8317;SDS011;4196;48.926;8.964;2023-05-10T03:02:20;1.97;;;1.70;;
8317;SDS011;4196;48.926;8.964;2023-05-10T03:05:07;2.00;;;1.77;;
8317;SDS011;4196;48.926;8.964;2023-05-10T03:07:53;2.00;;;1.80;;
8317;SDS011;4196;48.926;8.964;2023-05-10T03:10:41;2.40;;;1.80;;
8317;SDS011;4196;48.926;8.964;2023-05-10T03:14:08;1.93;;;1.83;;
8317;SDS011;4196;48.926;8.964;2023-05-10T03:16:56;2.30;;;2.00;;
8317;SDS011;4196;48.926;8.964;2023-05-10T03:19:54;2.07;;;1.87;;
8317;SDS011;4196;48.926;8.964;2023-05-10T03:26:04;1.97;;;1.87;;
8317;SDS011;4196;48.926;8.964;2023-05-10T03:28:53;2.30;;;2.10;;
8317;SDS011;4196;48.926;8.964;2023-05-10T03:31:41;2.10;;;1.93;;
8317;SDS011;4196;48.926;8.964;2023-05-10T03:34:29;4.33;;;2.77;;
8317;SDS011;4196;48.926;8.964;2023-05-10T03:37:17;2.53;;;2.30;;
8317;SDS011;4196;48.926;8.964;2023-05-10T03:40:04;1.97;;;1.77;;
8317;SDS011;4196;48.926;8.964;2023-05-10T03:42:54;2.67;;;1.90;;
8317;SDS011;4196;48.926;8.964;2023-05-10T03:45:41;2.20;;;2.00;;
8317;SDS011;4196;48.926;8.964;2023-05-10T03:48:29;2.00;;;1.80;;
8317;SDS011;4196;48.926;8.964;2023-05-10T03:51:15;2.10;;;1.90;;
8317;SDS011;4196;48.926;8.964;2023-05-10T03:54:02;1.70;;;1.60;;
8317;SDS011;4196;48.926;8.964;2023-05-10T03:56:49;3.07;;;1.70;;
8317;SDS011;4196;48.926;8.964;2023-05-10T03:59:37;1.50;;;1.40;;
8317;SDS011;4196;48.926;8.964;2023-05-10T04:02:24;2.40;;;1.60;;
8317;SDS011;4196;48.926;8.964;2023-05-10T04:05:11;1.63;;;1.53;;
8317;SDS011;4196;48.926;8.964;2023-05-10T04:07:58;1.93;;;1.70;;
8317;SDS011;4196;48.926;8.964;2023-05-10T04:10:45;1.60;;;1.50;;
8317;SDS011;4196;48.926;8.964;2023-05-10T04:13:31;2.50;;;1.80;;
8317;SDS011;4196;48.926;8.964;2023-05-10T04:16:17;1.60;;;1.50;;
8317;SDS011;4196;48.926;8.964;2023-05-10T04:19:04;1.87;;;1.73;;
8317;SDS011;4196;48.926;8.964;2023-05-10T04:21:51;5.37;;;2.10;;
8317;SDS011;4196;48.926;8.964;2023-05-10T04:24:38;1.83;;;1.70;;
8317;SDS011;4196;48.926;8.964;2023-05-10T04:27:24;3.53;;;1.80;;
8317;SDS011;4196;48.926;8.964;2023-05-10T04:30:11;3.77;;;1.97;;
8317;SDS011;4196;48.926;8.964;2023-05-10T04:32:57;2.40;;;1.90;;
8317;SDS011;4196;48.926;8.964;2023-05-10T04:35:44;2.17;;;1.97;;
8317;SDS011;4196;48.926;8.964;2023-05-10T04:38:31;7.57;;;1.73;;
8317;SDS011;4196;48.926;8.964;2023-05-10T04:41:17;2.10;;;1.83;;
8317;SDS011;4196;48.926;8.964;2023-05-10T04:44:04;1.70;;;1.60;;
8317;SDS011;4196;48.926;8.964;2023-05-10T04:46:50;4.27;;;1.97;;
8317;SDS011;4196;48.926;8.964;2023-05-10T04:49:36;3.10;;;1.97;;
8317;SDS011;4196;48.926;8.964;2023-05-10T04:52:23;4.67;;;2.77;;
8317;SDS011;4196;48.926;8.964;2023-05-10T04:55:09;2.40;;;1.70;;
8317;SDS011;4196;48.926;8.964;2023-05-10T04:57:56;2.00;;;1.90;;
8317;SDS011;4196;48.926;8.964;2023-05-10T05:00:43;2.57;;;2.37;;
8317;SDS011;4196;48.926;8.964;2023-05-10T05:03:30;2.80;;;1.80;;
8317;SDS011;4196;48.926;8.964;2023-05-10T05:06:16;2.40;;;1.97;;
8317;SDS011;4196;48.926;8.964;2023-05-10T05:09:03;2.17;;;1.77;;
8317;SDS011;4196;48.926;8.964;2023-05-10T05:11:49;2.30;;;1.97;;
8317;SDS011;4196;48.926;8.964;2023-05-10T05:14:35;2.47;;;1.90;;
8317;SDS011;4196;48.926;8.964;2023-05-10T05:17:22;2.20;;;2.00;;
8317;SDS011;4196;48.926;8.964;2023-05-10T05:20:08;1.90;;;1.80;;
8317;SDS011;4196;48.926;8.964;2023-05-10T05:22:56;2.00;;;1.80;;
8317;SDS011;4196;48.926;8.964;2023-05-10T05:25:42;2.00;;;1.80;;
8317;SDS011;4196;48.926;8.964;2023-05-10T05:28:29;2.43;;;2.23;;
8317;SDS011;4196;48.926;8.964;2023-05-10T05:31:18;2.33;;;2.10;;
8317;SDS011;4196;48.926;8.964;2023-05-10T05:34:05;2.00;;;1.80;;
8317;SDS011;4196;48.926;8.964;2023-05-10T05:36:51;2.20;;;2.00;;
8317;SDS011;4196;48.926;8.964;2023-05-10T05:39:38;3.97;;;2.13;;
8317;SDS011;4196;48.926;8.964;2023-05-10T05:42:25;3.77;;;2.07;;
8317;SDS011;4196;48.926;8.964;2023-05-10T05:45:11;4.27;;;1.93;;
8317;SDS011;4196;48.926;8.964;2023-05-10T05:48:01;2.67;;;2.03;;
8317;SDS011;4196;48.926;8.964;2023-05-10T05:50:48;2.10;;;1.90;;
8317;SDS011;4196;48.926;8.964;2023-05-10T05:53:34;2.27;;;2.07;;
8317;SDS011;4196;48.926;8.964;2023-05-10T05:56:21;2.10;;;1.90;;
8317;SDS011;4196;48.926;8.964;2023-05-10T05:59:11;2.40;;;1.83;;
8317;SDS011;4196;48.926;8.964;2023-05-10T06:01:57;4.07;;;1.60;;
8317;SDS011;4196;48.926;8.964;2023-05-10T06:04:44;3.70;;;2.17;;
8317;SDS011;4196;48.926;8.964;2023-05-10T06:07:31;2.03;;;1.80;;
8317;SDS011;4196;48.926;8.964;2023-05-10T06:10:17;1.77;;;1.67;;
8317;SDS011;4196;48.926;8.964;2023-05-10T06:13:04;2.93;;;1.90;;
8317;SDS011;4196;48.926;8.964;2023-05-10T06:15:50;1.93;;;1.60;;
8317;SDS011;4196;48.926;8.964;2023-05-10T06:18:37;2.33;;;1.60;;
8317;SDS011;4196;48.926;8.964;2023-05-10T06:21:23;2.67;;;1.30;;
8317;SDS011;4196;48.926;8.964;2023-05-10T06:24:09;2.77;;;1.73;;
8317;SDS011;4196;48.926;8.964;2023-05-10T06:26:56;2.33;;;1.97;;
8317;SDS011;4196;48.926;8.964;2023-05-10T06:29:42;1.40;;;1.30;;
8317;SDS011;4196;48.926;8.964;2023-05-10T06:32:28;1.97;;;1.70;;
8317;SDS011;4196;48.926;8.964;2023-05-10T06:35:15;2.67;;;1.40;;
8317;SDS011;4196;48.926;8.964;2023-05-10T06:38:01;2.67;;;1.70;;
8317;SDS011;4196;48.926;8.964;2023-05-10T06:40:48;2.13;;;1.30;;
8317;SDS011;4196;48.926;8.964;2023-05-10T06:43:34;1.30;;;1.20;;
8317;SDS011;4196;48.926;8.964;2023-05-10T06:46:20;1.00;;;1.00;;
8317;SDS011;4196;48.926;8.964;2023-05-10T06:49:07;4.63;;;1.53;;
8317;SDS011;4196;48.926;8.964;2023-05-10T06:51:57;0.90;;;0.90;;
8317;SDS011;4196;48.926;8.964;2023-05-10T06:54:43;1.07;;;0.97;;
8317;SDS011;4196;48.926;8.964;2023-05-10T06:57:30;1.00;;;1.00;;
8317;SDS011;4196;48.926;8.964;2023-05-10T07:00:17;0.97;;;0.97;;
8317;SDS011;4196;48.926;8.964;2023-05-10T07:03:05;1.30;;;1.20;;
8317;SDS011;4196;48.926;8.964;2023-05-10T07:05:52;1.77;;;1.20;;
8317;SDS011;4196;48.926;8.964;2023-05-10T07:08:39;1.30;;;0.93;;
8317;SDS011;4196;48.926;8.964;2023-05-10T07:11:26;2.03;;;1.00;;
8317;SDS011;4196;48.926;8.964;2023-05-10T07:14:12;1.17;;;0.90;;
8317;SDS011;4196;48.926;8.964;2023-05-10T07:16:59;0.87;;;0.87;;
8317;SDS011;4196;48.926;8.964;2023-05-10T07:19:45;2.13;;;0.90;;
8317;SDS011;4196;48.926;8.964;2023-05-10T07:22:32;6.33;;;1.33;;
8317;SDS011;4196;48.926;8.964;2023-05-10T07:25:18;0.80;;;0.80;;
8317;SDS011;4196;48.926;8.964;2023-05-10T07:28:05;0.93;;;0.90;;
8317;SDS011;4196;48.926;8.964;2023-05-10T07:30:51;1.17;;;1.07;;
8317;SDS011;4196;48.926;8.964;2023-05-10T07:33:38;2.60;;;0.83;;
8317;SDS011;4196;48.926;8.964;2023-05-10T07:36:24;1.00;;;1.00;;
8317;SDS011;4196;48.926;8.964;2023-05-10T07:39:11;0.80;;;0.80;;
8317;SDS011;4196;48.926;8.964;2023-05-10T07:42:06;1.03;;;0.80;;
8317;SDS011;4196;48.926;8.964;2023-05-10T07:44:52;2.60;;;1.00;;
8317;SDS011;4196;48.926;8.964;2023-05-10T07:47:38;0.63;;;0.63;;
8317;SDS011;4196;48.926;8.964;2023-05-10T07:50:25;1.10;;;0.83;;
8317;SDS011;4196;48.926;8.964;2023-05-10T07:53:11;1.00;;;0.90;;
8317;SDS011;4196;48.926;8.964;2023-05-10T07:55:58;0.47;;;0.47;;
8317;SDS011;4196;48.926;8.964;2023-05-10T07:58:44;1.50;;;0.60;;
8317;SDS011;4196;48.926;8.964;2023-05-10T08:01:31;0.77;;;0.73;;
8317;SDS011;4196;48.926;8.964;2023-05-10T08:04:18;1.27;;;0.97;;
8317;SDS011;4196;48.926;8.964;2023-05-10T08:07:05;3.60;;;1.07;;
8317;SDS011;4196;48.926;8.964;2023-05-10T08:09:51;0.40;;;0.30;;
8317;SDS011;4196;48.926;8.964;2023-05-10T08:12:38;0.53;;;0.50;;
8317;SDS011;4196;48.926;8.964;2023-05-10T08:15:24;1.77;;;0.90;;
8317;SDS011;4196;48.926;8.964;2023-05-10T08:18:11;0.63;;;0.63;;
8317;SDS011;4196;48.926;8.964;2023-05-10T08:20:58;0.77;;;0.60;;
8317;SDS011;4196;48.926;8.964;2023-05-10T08:23:44;3.00;;;0.57;;
8317;SDS011;4196;48.926;8.964;2023-05-10T08:26:30;0.40;;;0.40;;
8317;SDS011;4196;48.926;8.964;2023-05-10T08:29:18;0.57;;;0.57;;
8317;SDS011;4196;48.926;8.964;2023-05-10T08:32:05;0.60;;;0.60;;
8317;SDS011;4196;48.926;8.964;2023-05-10T08:34:51;1.13;;;0.53;;
8317;SDS011;4196;48.926;8.964;2023-05-10T08:37:38;1.57;;;0.60;;
8317;SDS011;4196;48.926;8.964;2023-05-10T08:40:24;0.60;;;0.57;;
8317;SDS011;4196;48.926;8.964;2023-05-10T08:43:12;0.60;;;0.60;;
8317;SDS011;4196;48.926;8.964;2023-05-10T08:46:01;1.17;;;0.73;;
8317;SDS011;4196;48.926;8.964;2023-05-10T08:48:49;0.53;;;0.53;;
8317;SDS011;4196;48.926;8.964;2023-05-10T08:51:37;3.93;;;0.97;;
8317;SDS011;4196;48.926;8.964;2023-05-10T08:54:28;1.40;;;0.77;;
8317;SDS011;4196;48.926;8.964;2023-05-10T08:57:16;3.87;;;0.80;;
8317;SDS011;4196;48.926;8.964;2023-05-10T09:00:02;1.53;;;0.60;;
8317;SDS011;4196;48.926;8.964;2023-05-10T09:02:49;1.97;;;0.80;;
8317;SDS011;4196;48.926;8.964;2023-05-10T09:05:36;0.60;;;0.60;;
8317;SDS011;4196;48.926;8.964;2023-05-10T09:08:23;3.17;;;0.90;;
8317;SDS011;4196;48.926;8.964;2023-05-10T09:11:13;0.60;;;0.60;;
8317;SDS011;4196;48.926;8.964;2023-05-10T09:14:00;0.50;;;0.50;;
8317;SDS011;4196;48.926;8.964;2023-05-10T09:16:47;1.37;;;0.50;;
8317;SDS011;4196;48.926;8.964;2023-05-10T09:19:33;0.63;;;0.50;;
8317;SDS011;4196;48.926;8.964;2023-05-10T09:22:20;2.10;;;0.60;;
8317;SDS011;4196;48.926;8.964;2023-05-10T09:25:10;0.50;;;0.50;;
8317;SDS011;4196;48.926;8.964;2023-05-10T09:27:58;1.10;;;0.47;;
8317;SDS011;4196;48.926;8.964;2023-05-10T09:30:45;1.80;;;0.73;;
8317;SDS011;4196;48.926;8.964;2023-05-10T09:33:45;1.07;;;0.70;;
8317;SDS011;4196;48.926;8.964;2023-05-10T09:36:33;0.67;;;0.67;;
8317;SDS011;4196;48.926;8.964;2023-05-10T09:39:19;0.93;;;0.60;;
8317;SDS011;4196;48.926;8.964;2023-05-10T09:42:07;0.77;;;0.50;;
8317;SDS011;4196;48.926;8.964;2023-05-10T09:44:59;0.70;;;0.70;;
8317;SDS011;4196;48.926;8.964;2023-05-10T09:47:46;0.20;;;0.20;;
8317;SDS011;4196;48.926;8.964;2023-05-10T09:50:33;0.37;;;0.30;;
8317;SDS011;4196;48.926;8.964;2023-05-10T09:53:20;1.20;;;0.50;;
8317;SDS011;4196;48.926;8.964;2023-05-10T09:56:07;1.00;;;0.50;;
8317;SDS011;4196;48.926;8.964;2023-05-10T09:59:01;0.90;;;0.60;;
8317;SDS011;4196;48.926;8.964;2023-05-10T10:01:49;1.80;;;0.80;;
8317;SDS011;4196;48.926;8.964;2023-05-10T10:04:40;2.10;;;0.80;;
8317;SDS011;4196;48.926;8.964;2023-05-10T10:07:27;0.40;;;0.40;;
8317;SDS011;4196;48.926;8.964;2023-05-10T10:10:14;0.77;;;0.57;;
8317;SDS011;4196;48.926;8.964;2023-05-10T10:13:01;1.27;;;0.60;;
8317;SDS011;4196;48.926;8.964;2023-05-10T10:15:47;1.37;;;0.63;;
8317;SDS011;4196;48.926;8.964;2023-05-10T10:18:37;1.90;;;0.97;;
8317;SDS011;4196;48.926;8.964;2023-05-10T10:21:25;1.60;;;0.80;;
8317;SDS011;4196;48.926;8.964;2023-05-10T10:24:11;0.80;;;0.80;;
8317;SDS011;4196;48.926;8.964;2023-05-10T10:27:33;1.47;;;0.70;;
8317;SDS011;4196;48.926;8.964;2023-05-10T10:30:25;1.80;;;0.73;;
8317;SDS011;4196;48.926;8.964;2023-05-10T10:33:28;1.70;;;0.60;;
8317;SDS011;4196;48.926;8.964;2023-05-10T10:36:23;0.73;;;0.73;;
8317;SDS011;4196;48.926;8.964;2023-05-10T10:39:09;0.97;;;0.63;;
8317;SDS011;4196;48.926;8.964;2023-05-10T10:41:56;1.00;;;0.60;;
8317;SDS011;4196;48.926;8.964;2023-05-10T10:44:44;1.70;;;0.60;;
8317;SDS011;4196;48.926;8.964;2023-05-10T10:47:30;1.80;;;0.80;;
8317;SDS011;4196;48.926;8.964;2023-05-10T10:50:19;1.07;;;0.77;;
8317;SDS011;4196;48.926;8.964;2023-05-10T10:53:12;1.03;;;0.90;;
8317;SDS011;4196;48.926;8.964;2023-05-10T10:56:09;1.00;;;0.77;;
8317;SDS011;4196;48.926;8.964;2023-05-10T10:58:58;0.70;;;0.60;;
8317;SDS011;4196;48.926;8.964;2023-05-10T11:01:45;1.97;;;0.83;;
8317;SDS011;4196;48.926;8.964;2023-05-10T11:04:41;2.87;;;0.90;;
8317;SDS011;4196;48.926;8.964;2023-05-10T11:07:29;1.47;;;0.80;;
8317;SDS011;4196;48.926;8.964;2023-05-10T11:10:19;0.70;;;0.70;;
8317;SDS011;4196;48.926;8.964;2023-05-10T11:13:07;1.33;;;0.90;;
8317;SDS011;4196;48.926;8.964;2023-05-10T11:15:56;0.97;;;0.90;;
8317;SDS011;4196;48.926;8.964;2023-05-10T11:21:49;0.90;;;0.80;;
8317;SDS011;4196;48.926;8.964;2023-05-10T11:24:57;2.70;;;1.07;;
8317;SDS011;4196;48.926;8.964;2023-05-10T11:27:44;3.27;;;1.53;;
8317;SDS011;4196;48.926;8.964;2023-05-10T11:30:33;2.00;;;1.07;;
8317;SDS011;4196;48.926;8.964;2023-05-10T11:33:20;1.30;;;1.20;;
8317;SDS011;4196;48.926;8.964;2023-05-10T11:36:10;1.80;;;1.70;;
8317;SDS011;4196;48.926;8.964;2023-05-10T11:38:57;1.63;;;1.20;;
8317;SDS011;4196;48.926;8.964;2023-05-10T11:41:44;2.80;;;1.00;;
8317;SDS011;4196;48.926;8.964;2023-05-10T11:44:34;3.47;;;1.50;;
8317;SDS011;4196;48.926;8.964;2023-05-10T11:47:21;1.40;;;1.30;;
8317;SDS011;4196;48.926;8.964;2023-05-10T11:50:08;10.33;;;1.53;;
8317;SDS011;4196;48.926;8.964;2023-05-10T11:52:55;3.63;;;1.30;;
8317;SDS011;4196;48.926;8.964;2023-05-10T11:55:42;1.27;;;1.10;;
8317;SDS011;4196;48.926;8.964;2023-05-10T11:58:28;1.20;;;1.10;;
8317;SDS011;4196;48.926;8.964;2023-05-10T12:01:15;0.93;;;0.93;;
8317;SDS011;4196;48.926;8.964;2023-05-10T12:04:01;0.93;;;0.93;;
8317;SDS011;4196;48.926;8.964;2023-05-10T12:06:49;1.57;;;1.00;;
8317;SDS011;4196;48.926;8.964;2023-05-10T12:09:35;0.83;;;0.80;;
8317;SDS011;4196;48.926;8.964;2023-05-10T12:12:39;1.07;;;0.63;;
8317;SDS011;4196;48.926;8.964;2023-05-10T12:15:30;2.47;;;1.53;;
8317;SDS011;4196;48.926;8.964;2023-05-10T12:18:22;1.57;;;1.43;;
8317;SDS011;4196;48.926;8.964;2023-05-10T12:21:11;2.27;;;0.93;;
8317;SDS011;4196;48.926;8.964;2023-05-10T12:23:59;1.33;;;0.80;;
8317;SDS011;4196;48.926;8.964;2023-05-10T12:26:48;1.33;;;0.67;;
8317;SDS011;4196;48.926;8.964;2023-05-10T12:29:34;1.27;;;0.70;;
8317;SDS011;4196;48.926;8.964;2023-05-10T12:32:20;1.30;;;0.93;;
8317;SDS011;4196;48.926;8.964;2023-05-10T12:35:07;0.80;;;0.80;;
8317;SDS011;4196;48.926;8.964;2023-05-10T12:37:54;0.80;;;0.80;;
8317;SDS011;4196;48.926;8.964;2023-05-10T12:40:41;1.40;;;0.80;;
8317;SDS011;4196;48.926;8.964;2023-05-10T12:43:27;1.43;;;0.73;;
8317;SDS011;4196;48.926;8.964;2023-05-10T12:46:15;0.93;;;0.87;;
8317;SDS011;4196;48.926;8.964;2023-05-10T12:49:03;1.80;;;0.80;;
8317;SDS011;4196;48.926;8.964;2023-05-10T12:51:54;1.43;;;0.80;;
8317;SDS011;4196;48.926;8.964;2023-05-10T12:54:40;2.83;;;1.13;;
8317;SDS011;4196;48.926;8.964;2023-05-10T12:57:27;0.63;;;0.60;;
8317;SDS011;4196;48.926;8.964;2023-05-10T13:00:14;0.60;;;0.60;;
8317;SDS011;4196;48.926;8.964;2023-05-10T13:03:01;1.73;;;0.80;;
8317;SDS011;4196;48.926;8.964;2023-05-10T13:05:47;1.43;;;0.67;;
8317;SDS011;4196;48.926;8.964;2023-05-10T13:08:34;0.73;;;0.73;;
8317;SDS011;4196;48.926;8.964;2023-05-10T13:11:20;0.90;;;0.80;;
8317;SDS011;4196;48.926;8.964;2023-05-10T13:14:07;2.27;;;0.80;;
8317;SDS011;4196;48.926;8.964;2023-05-10T13:16:53;4.47;;;1.00;;
8317;SDS011;4196;48.926;8.964;2023-05-10T13:19:40;0.97;;;0.77;;
8317;SDS011;4196;48.926;8.964;2023-05-10T13:22:26;1.37;;;0.90;;
8317;SDS011;4196;48.926;8.964;2023-05-10T13:25:25;1.17;;;0.80;;
8317;SDS011;4196;48.926;8.964;2023-05-10T13:28:11;0.87;;;0.70;;
8317;SDS011;4196;48.926;8.964;2023-05-10T13:30:58;1.00;;;1.00;;
8317;SDS011;4196;48.926;8.964;2023-05-10T13:33:45;1.13;;;0.67;;
8317;SDS011;4196;48.926;8.964;2023-05-10T13:36:32;0.90;;;0.90;;
8317;SDS011;4196;48.926;8.964;2023-05-10T13:39:18;2.60;;;1.07;;
8317;SDS011;4196;48.926;8.964;2023-05-10T13:42:06;1.27;;;0.90;;
8317;SDS011;4196;48.926;8.964;2023-05-10T13:44:52;1.83;;;1.40;;
8317;SDS011;4196;48.926;8.964;2023-05-10T13:47:38;0.77;;;0.67;;
8317;SDS011;4196;48.926;8.964;2023-05-10T13:50:25;1.93;;;0.80;;
8317;SDS011;4196;48.926;8.964;2023-05-10T13:53:13;2.37;;;0.83;;
8317;SDS011;4196;48.926;8.964;2023-05-10T13:56:00;1.03;;;0.60;;
8317;SDS011;4196;48.926;8.964;2023-05-10T13:58:46;1.23;;;0.77;;
8317;SDS011;4196;48.926;8.964;2023-05-10T14:01:33;1.67;;;0.70;;
8317;SDS011;4196;48.926;8.964;2023-05-10T14:04:20;2.63;;;1.03;;
8317;SDS011;4196;48.926;8.964;2023-05-10T14:07:06;0.60;;;0.60;;
8317;SDS011;4196;48.926;8.964;2023-05-10T14:09:52;0.90;;;0.80;;
8317;SDS011;4196;48.926;8.964;2023-05-10T14:12:39;3.97;;;0.80;;
8317;SDS011;4196;48.926;8.964;2023-05-10T14:15:25;2.03;;;0.93;;
8317;SDS011;4196;48.926;8.964;2023-05-10T14:18:11;1.20;;;0.60;;
8317;SDS011;4196;48.926;8.964;2023-05-10T14:20:58;1.20;;;0.77;;
8317;SDS011;4196;48.926;8.964;2023-05-10T14:23:44;1.03;;;0.90;;
8317;SDS011;4196;48.926;8.964;2023-05-10T14:26:31;1.40;;;0.60;;
8317;SDS011;4196;48.926;8.964;2023-05-10T14:29:17;1.63;;;1.37;;
8317;SDS011;4196;48.926;8.964;2023-05-10T14:32:04;1.67;;;0.90;;
8317;SDS011;4196;48.926;8.964;2023-05-10T14:34:50;1.70;;;0.87;;
8317;SDS011;4196;48.926;8.964;2023-05-10T14:37:37;0.73;;;0.67;;
8317;SDS011;4196;48.926;8.964;2023-05-10T14:40:23;0.97;;;0.87;;
8317;SDS011;4196;48.926;8.964;2023-05-10T14:43:10;1.43;;;0.87;;
8317;SDS011;4196;48.926;8.964;2023-05-10T14:45:57;3.00;;;1.20;;
8317;SDS011;4196;48.926;8.964;2023-05-10T14:48:43;1.90;;;1.07;;
8317;SDS011;4196;48.926;8.964;2023-05-10T14:51:29;0.60;;;0.60;;
8317;SDS011;4196;48.926;8.964;2023-05-10T14:54:16;1.13;;;1.13;;
8317;SDS011;4196;48.926;8.964;2023-05-10T14:57:02;1.90;;;0.90;;
8317;SDS011;4196;48.926;8.964;2023-05-10T14:59:49;1.07;;;0.93;;
8317;SDS011;4196;48.926;8.964;2023-05-10T15:02:35;0.93;;;0.87;;
8317;SDS011;4196;48.926;8.964;2023-05-10T15:05:23;1.03;;;1.00;;
8317;SDS011;4196;48.926;8.964;2023-05-10T15:08:09;1.70;;;0.60;;
8317;SDS011;4196;48.926;8.964;2023-05-10T15:10:56;2.93;;;1.13;;
8317;SDS011;4196;48.926;8.964;2023-05-10T15:13:43;0.67;;;0.57;;
8317;SDS011;4196;48.926;8.964;2023-05-10T15:16:29;2.03;;;0.97;;
8317;SDS011;4196;48.926;8.964;2023-05-10T15:19:19;0.87;;;0.70;;
8317;SDS011;4196;48.926;8.964;2023-05-10T15:22:06;0.80;;;0.80;;
8317;SDS011;4196;48.926;8.964;2023-05-10T15:24:53;0.60;;;0.60;;
8317;SDS011;4196;48.926;8.964;2023-05-10T15:27:39;0.50;;;0.50;;
8317;SDS011;4196;48.926;8.964;2023-05-10T15:30:25;2.77;;;1.00;;
8317;SDS011;4196;48.926;8.964;2023-05-10T15:33:12;1.90;;;0.83;;
8317;SDS011;4196;48.926;8.964;2023-05-10T15:35:58;0.77;;;0.77;;
8317;SDS011;4196;48.926;8.964;2023-05-10T15:38:45;1.27;;;0.70;;
8317;SDS011;4196;48.926;8.964;2023-05-10T15:41:31;0.70;;;0.70;;
8317;SDS011;4196;48.926;8.964;2023-05-10T15:44:17;0.67;;;0.67;;
8317;SDS011;4196;48.926;8.964;2023-05-10T15:47:04;0.60;;;0.60;;
8317;SDS011;4196;48.926;8.964;2023-05-10T15:49:52;1.07;;;0.83;;
8317;SDS011;4196;48.926;8.964;2023-05-10T15:52:38;1.03;;;0.83;;
8317;SDS011;4196;48.926;8.964;2023-05-10T15:55:24;1.80;;;0.87;;
8317;SDS011;4196;48.926;8.964;2023-05-10T15:58:11;1.27;;;0.87;;
8317;SDS011;4196;48.926;8.964;2023-05-10T16:00:57;1.53;;;0.70;;
8317;SDS011;4196;48.926;8.964;2023-05-10T16:03:44;3.10;;;1.20;;
8317;SDS011;4196;48.926;8.964;2023-05-10T16:06:30;1.53;;;0.90;;
8317;SDS011;4196;48.926;8.964;2023-05-10T16:09:17;1.57;;;0.87;;
8317;SDS011;4196;48.926;8.964;2023-05-10T16:12:03;1.87;;;0.87;;
8317;SDS011;4196;48.926;8.964;2023-05-10T16:14:49;0.63;;;0.63;;
8317;SDS011;4196;48.926;8.964;2023-05-10T16:17:36;2.53;;;1.27;;
8317;SDS011;4196;48.926;8.964;2023-05-10T16:20:22;0.87;;;0.70;;
8317;SDS011;4196;48.926;8.964;2023-05-10T16:23:09;0.57;;;0.57;;
8317;SDS011;4196;48.926;8.964;2023-05-10T16:25:56;1.77;;;1.10;;
8317;SDS011;4196;48.926;8.964;2023-05-10T16:28:42;0.87;;;0.80;;
8317;SDS011;4196;48.926;8.964;2023-05-10T16:31:29;1.83;;;0.80;;
8317;SDS011;4196;48.926;8.964;2023-05-10T16:34:15;0.70;;;0.70;;
8317;SDS011;4196;48.926;8.964;2023-05-10T16:37:01;1.10;;;0.80;;
8317;SDS011;4196;48.926;8.964;2023-05-10T16:39:47;1.43;;;0.80;;
8317;SDS011;4196;48.926;8.964;2023-05-10T16:42:34;1.63;;;0.67;;
8317;SDS011;4196;48.926;8.964;2023-05-10T16:45:20;1.93;;;0.63;;
8317;SDS011;4196;48.926;8.964;2023-05-10T16:48:06;3.80;;;1.00;;
8317;SDS011;4196;48.926;8.964;2023-05-10T16:50:53;0.70;;;0.70;;
8317;SDS011;4196;48.926;8.964;2023-05-10T16:53:39;0.63;;;0.50;;
8317;SDS011;4196;48.926;8.964;2023-05-10T16:56:26;1.23;;;0.80;;
8317;SDS011;4196;48.926;8.964;2023-05-10T16:59:12;0.97;;;0.70;;
8317;SDS011;4196;48.926;8.964;2023-05-10T17:01:59;1.17;;;0.70;;
8317;SDS011;4196;48.926;8.964;2023-05-10T17:04:45;2.50;;;0.77;;
8317;SDS011;4196;48.926;8.964;2023-05-10T17:07:32;1.47;;;0.50;;
8317;SDS011;4196;48.926;8.964;2023-05-10T17:10:19;0.70;;;0.50;;
8317;SDS011;4196;48.926;8.964;2023-05-10T17:13:05;0.70;;;0.70;;
8317;SDS011;4196;48.926;8.964;2023-05-10T17:15:55;0.80;;;0.80;;
8317;SDS011;4196;48.926;8.964;2023-05-10T17:18:42;0.67;;;0.60;;
8317;SDS011;4196;48.926;8.964;2023-05-10T17:21:30;0.87;;;0.67;;
8317;SDS011;4196;48.926;8.964;2023-05-10T17:24:16;0.90;;;0.70;;
8317;SDS011;4196;48.926;8.964;2023-05-10T17:27:03;0.83;;;0.73;;
8317;SDS011;4196;48.926;8.964;2023-05-10T17:29:53;0.77;;;0.57;;
8317;SDS011;4196;48.926;8.964;2023-05-10T17:32:44;1.17;;;0.90;;
8317;SDS011;4196;48.926;8.964;2023-05-10T17:35:31;1.20;;;0.60;;
8317;SDS011;4196;48.926;8.964;2023-05-10T17:38:17;3.90;;;1.07;;